Time;durP1;ratioP1;P1;durP2;ratioP2;P2;SDS_P1;SDS_P2;PMS_P1;PMS_P2;Temp;Humidity;BMP_temperature;BMP_pressure;BME280_temperature;BME280_humidity;BME280_pressure;Samples;Min_cycle;Max_cycle;Signal;HPM_P1;HPM_P2
2022/08/25 00:00:20;;;;;;;3.15;2.10;;;;;;;23.59;75.65;100669.31;5054004;28;20033;-65
2022/08/25 00:02:46;;;;;;;6.35;2.00;;;;;;;23.80;74.55;100663.47;5053632;28;20331;-63
2022/08/25 00:05:11;;;;;;;2.38;2.13;;;;;;;23.93;73.54;100659.81;5052423;28;20040;-64
2022/08/25 00:07:37;;;;;;;4.28;2.17;;;;;;;23.96;73.16;100662.84;5053020;28;20032;-64
2022/08/25 00:10:05;;;;;;;2.53;1.77;;;;;;;23.93;73.86;100657.97;5053526;28;20072;-66
2022/08/25 00:12:30;;;;;;;3.63;2.35;;;;;;;23.85;74.85;100657.47;5048699;28;20039;-64
2022/08/25 00:14:56;;;;;;;6.32;2.33;;;;;;;23.73;75.61;100662.75;5050401;28;20108;-64
2022/08/25 00:17:21;;;;;;;4.38;3.17;;;;;;;23.58;76.36;100670.34;5049172;28;20057;-65
2022/08/25 00:19:46;;;;;;;3.33;2.70;;;;;;;23.48;76.74;100660.22;5050128;28;20045;-63
2022/08/25 00:22:12;;;;;;;3.53;2.70;;;;;;;23.38;76.97;100665.25;5049139;28;20125;-64
2022/08/25 00:24:38;;;;;;;8.30;2.33;;;;;;;23.30;77.45;100657.56;5050531;28;20136;-66
2022/08/25 00:27:04;;;;;;;4.25;2.70;;;;;;;23.21;77.99;100662.38;5031120;28;20547;-63
2022/08/25 00:29:31;;;;;;;4.88;1.90;;;;;;;23.21;77.60;100669.53;5032044;28;20047;-65
2022/08/25 00:31:58;;;;;;;1.85;1.65;;;;;;;23.22;77.81;100666.66;5050322;28;20049;-63
2022/08/25 00:34:33;;;;;;;3.55;2.30;;;;;;;23.20;77.53;100660.75;5049898;28;20090;-63
2022/08/25 00:36:59;;;;;;;3.85;2.05;;;;;;;23.17;78.44;100658.53;5049138;28;20036;-64
2022/08/25 00:39:26;;;;;;;2.60;1.40;;;;;;;23.08;79.13;100655.38;5048938;28;20499;-65
2022/08/25 00:41:55;;;;;;;4.03;2.28;;;;;;;23.00;79.57;100658.34;5026838;28;20041;-64
2022/08/25 00:44:22;;;;;;;2.95;2.20;;;;;;;22.90;80.85;100657.22;5027580;28;20035;-64
2022/08/25 00:46:52;;;;;;;3.13;2.38;;;;;;;22.79;81.85;100662.22;5027884;28;20026;-64
2022/08/25 00:49:29;;;;;;;3.45;2.33;;;;;;;22.70;82.88;100658.19;5028743;28;20067;-64
2022/08/25 00:52:01;;;;;;;3.40;2.63;;;;;;;22.68;82.90;100665.59;5027846;28;20025;-65
2022/08/25 00:54:36;;;;;;;2.50;1.60;;;;;;;22.64;82.80;100666.25;5028839;28;20086;-63
2022/08/25 00:57:05;;;;;;;2.17;1.90;;;;;;;22.61;82.70;100664.84;5027298;28;20448;-64
2022/08/25 00:59:31;;;;;;;5.13;2.40;;;;;;;22.61;83.17;100661.38;5028869;28;20412;-65
2022/08/25 01:01:57;;;;;;;3.58;1.70;;;;;;;22.59;83.43;100661.59;5024707;28;20132;-64
2022/08/25 01:04:24;;;;;;;2.95;2.20;;;;;;;22.63;82.20;100664.63;5027257;28;20452;-64
2022/08/25 01:06:50;;;;;;;4.43;1.98;;;;;;;22.72;81.43;100668.59;5027048;28;20393;-64
2022/08/25 01:09:18;;;;;;;3.45;2.28;;;;;;;22.73;81.67;100668.38;5028498;28;20421;-65
2022/08/25 01:11:44;;;;;;;3.13;2.63;;;;;;;22.66;81.63;100667.66;5029449;28;20029;-64
2022/08/25 01:14:14;;;;;;;3.00;2.15;;;;;;;22.71;81.62;100664.31;5028538;28;20132;-66
2022/08/25 01:16:40;;;;;;;3.10;2.13;;;;;;;22.76;81.45;100667.94;5029491;28;20087;-65
2022/08/25 01:19:07;;;;;;;2.95;2.65;;;;;;;22.75;81.09;100666.31;5028317;28;20464;-65
2022/08/25 01:21:39;;;;;;;2.40;2.15;;;;;;;22.83;79.67;100658.09;5029594;28;20039;-64
2022/08/25 01:24:05;;;;;;;3.17;2.67;;;;;;;23.05;79.07;100652.34;5028262;28;20040;-64
2022/08/25 01:26:33;;;;;;;4.65;2.30;;;;;;;23.09;78.28;100650.88;5029186;28;20025;-63
2022/08/25 01:29:20;;;;;;;3.17;2.70;;;;;;;23.17;77.57;100647.91;5028296;28;20083;-64
2022/08/25 01:31:48;;;;;;;4.20;2.28;;;;;;;23.37;76.51;100643.16;5028397;28;20029;-65
2022/08/25 01:34:14;;;;;;;3.63;2.35;;;;;;;23.47;76.31;100643.44;5028668;28;20051;-65
2022/08/25 01:36:42;;;;;;;8.70;2.35;;;;;;;23.41;75.96;100648.84;5028905;28;20083;-65
2022/08/25 01:39:09;;;;;;;2.38;2.15;;;;;;;23.59;75.19;100650.69;5028778;28;20033;-65
2022/08/25 01:41:57;;;;;;;2.88;2.30;;;;;;;23.68;74.21;100644.00;5044521;28;20044;-65
2022/08/25 01:44:23;;;;;;;3.13;2.38;;;;;;;23.68;74.63;100641.34;5048780;28;20184;-66
2022/08/25 01:46:50;;;;;;;3.10;2.38;;;;;;;23.65;74.81;100637.28;5030734;28;20388;-65
2022/08/25 01:49:16;;;;;;;3.85;3.22;;;;;;;23.69;74.62;100640.28;5047404;28;20040;-65
2022/08/25 01:51:47;;;;;;;7.70;2.60;;;;;;;23.69;74.54;100645.63;5048623;28;20509;-65
2022/08/25 01:54:13;;;;;;;2.92;2.65;;;;;;;23.71;74.73;100648.88;5048818;28;20091;-65
2022/08/25 01:56:38;;;;;;;2.45;2.25;;;;;;;23.70;74.63;100647.25;5048722;28;20059;-66
2022/08/25 01:59:04;;;;;;;5.95;2.50;;;;;;;23.74;74.52;100651.06;5047601;28;20052;-65
2022/08/25 02:01:30;;;;;;;5.13;2.58;;;;;;;23.75;74.45;100644.72;5048813;28;20536;-66
2022/08/25 02:03:55;;;;;;;3.22;2.88;;;;;;;23.76;73.97;100644.50;5047423;28;20365;-65
2022/08/25 02:06:28;;;;;;;2.78;2.20;;;;;;;23.77;74.18;100637.31;5048252;28;20025;-65
2022/08/25 02:08:57;;;;;;;3.05;2.85;;;;;;;23.74;74.17;100637.78;5047441;28;20506;-66
2022/08/25 02:11:23;;;;;;;2.88;2.60;;;;;;;23.66;74.71;100635.44;5030252;28;20129;-64
2022/08/25 02:13:51;;;;;;;3.40;2.67;;;;;;;23.62;74.78;100640.41;5047420;28;20496;-65
2022/08/25 02:16:24;;;;;;;3.40;2.95;;;;;;;23.58;74.91;100627.78;5030049;28;20029;-65
2022/08/25 02:18:50;;;;;;;4.93;2.83;;;;;;;23.53;75.29;100635.59;5047063;28;20037;-65
2022/08/25 02:21:16;;;;;;;2.92;2.47;;;;;;;23.48;75.49;100628.31;5048615;28;20021;-64
2022/08/25 02:23:42;;;;;;;3.13;2.35;;;;;;;23.50;75.02;100624.38;5048016;28;20036;-66
2022/08/25 02:26:08;;;;;;;3.05;2.75;;;;;;;23.55;74.91;100618.41;5048172;28;20024;-65
2022/08/25 02:28:34;;;;;;;5.07;2.78;;;;;;;23.58;74.35;100611.84;5028928;28;20195;-65
2022/08/25 02:31:00;;;;;;;4.53;2.85;;;;;;;23.62;74.24;100618.31;5047048;28;20033;-64
2022/08/25 02:33:25;;;;;;;3.17;2.85;;;;;;;23.62;74.11;100619.13;5047046;28;20425;-64
2022/08/25 02:35:50;;;;;;;3.55;2.90;;;;;;;23.59;74.25;100613.47;5047822;28;20049;-66
2022/08/25 02:38:17;;;;;;;5.25;2.60;;;;;;;23.56;74.44;100622.69;5046494;28;20041;-65
2022/08/25 02:43:17;;;;;;;2.38;2.17;;;;;;;23.57;73.97;100620.84;4947340;22;20274;-86
2022/08/25 02:45:43;;;;;;;3.25;2.95;;;;;;;23.56;74.22;100621.88;5030585;28;20379;-86
2022/08/25 02:48:08;;;;;;;5.32;2.80;;;;;;;23.56;74.46;100621.88;5030429;28;20112;-86
2022/08/25 02:50:34;;;;;;;7.07;2.65;;;;;;;23.54;74.21;100613.31;5027909;28;20029;-86
2022/08/25 02:52:59;;;;;;;5.03;2.60;;;;;;;23.45;74.42;100624.25;5030734;28;20029;-85
2022/08/25 02:55:24;;;;;;;3.35;2.55;;;;;;;23.40;75.20;100618.78;5047933;28;20051;-85
2022/08/25 02:57:50;;;;;;;5.05;2.95;;;;;;;23.28;75.99;100609.94;5030584;28;20021;-86
2022/08/25 03:00:16;;;;;;;3.78;3.20;;;;;;;23.12;76.75;100614.03;5046422;28;20541;-86
2022/08/25 03:02:42;;;;;;;4.88;3.20;;;;;;;22.99;78.07;100610.72;5046924;28;20119;-85
2022/08/25 03:05:10;;;;;;;3.55;2.78;;;;;;;22.83;79.06;100607.63;5046930;28;20432;-85
2022/08/25 03:07:37;;;;;;;3.67;2.90;;;;;;;22.73;80.66;100617.91;5048004;28;20036;-83
2022/08/25 03:10:12;;;;;;;2.97;2.03;;;;;;;22.57;81.20;100610.53;5048498;28;20021;-84
2022/08/25 03:12:40;;;;;;;5.50;2.60;;;;;;;22.47;81.31;100612.88;5029433;28;20155;-86
2022/08/25 03:15:07;;;;;;;6.75;2.58;;;;;;;22.40;81.53;100609.47;5030870;28;20459;-84
2022/08/25 03:17:33;;;;;;;3.28;2.65;;;;;;;22.31;81.38;100613.44;5062449;28;20021;-85
2022/08/25 03:20:09;;;;;;;5.53;2.92;;;;;;;22.22;82.22;100617.38;5055083;28;20088;-86
2022/08/25 03:22:35;;;;;;;3.67;2.22;;;;;;;22.15;82.05;100612.97;5069656;28;20059;-85
2022/08/25 03:27:48;;;;;;;3.25;2.53;;;;;;;22.04;83.00;100608.34;5059649;28;20083;-83
2022/08/25 03:30:14;;;;;;;3.63;2.05;;;;;;;22.00;83.23;100604.47;5046044;28;20114;-86
2022/08/25 03:32:41;;;;;;;4.93;2.90;;;;;;;21.99;82.92;100604.69;5048014;28;20056;-84
2022/08/25 03:35:07;;;;;;;3.83;2.85;;;;;;;22.12;81.85;100601.97;5046948;28;20025;-83
2022/08/25 03:37:32;;;;;;;4.70;2.92;;;;;;;22.25;81.17;100601.03;5047855;28;20028;-85
2022/08/25 03:39:58;;;;;;;4.03;2.70;;;;;;;22.35;80.34;100606.66;5027724;28;20135;-85
2022/08/25 03:42:25;;;;;;;3.33;2.90;;;;;;;22.39;80.21;100603.34;5047199;28;20053;-84
2022/08/25 03:45:03;;;;;;;4.53;2.35;;;;;;;22.34;80.62;100613.81;5047214;28;20025;-85
2022/08/25 03:47:29;;;;;;;4.72;2.80;;;;;;;22.31;80.69;100611.59;5032579;28;20079;-85
2022/08/25 03:49:55;;;;;;;3.13;2.50;;;;;;;22.31;80.53;100610.78;5032352;28;20029;-87
2022/08/25 03:52:20;;;;;;;4.13;3.22;;;;;;;22.23;81.23;100609.19;5033368;28;20035;-85
2022/08/25 03:54:46;;;;;;;2.90;2.58;;;;;;;22.20;81.37;100599.06;5033202;28;20074;-84
2022/08/25 03:57:11;;;;;;;3.78;3.28;;;;;;;22.23;81.40;100600.44;5051011;28;20340;-85
2022/08/25 03:59:37;;;;;;;2.30;2.10;;;;;;;22.13;82.16;100596.44;5051576;28;20045;-84
2022/08/25 04:02:04;;;;;;;4.68;3.03;;;;;;;21.92;83.88;100596.78;5050211;28;20033;-83
2022/08/25 04:04:30;;;;;;;4.32;3.03;;;;;;;21.72;85.01;100602.25;5051337;28;20028;-85
2022/08/25 04:06:56;;;;;;;4.03;2.85;;;;;;;21.58;86.49;100599.88;5032863;28;20372;-83
2022/08/25 04:09:21;;;;;;;4.78;3.03;;;;;;;21.47;86.77;100591.56;5051027;28;20112;-83
2022/08/25 04:11:47;;;;;;;4.03;3.05;;;;;;;21.38;87.51;100592.03;5032475;28;20144;-84
2022/08/25 04:14:13;;;;;;;3.97;2.78;;;;;;;21.29;88.20;100602.06;5032946;28;20421;-83
2022/08/25 04:17:00;;;;;;;3.50;3.05;;;;;;;21.17;88.86;100601.91;5049514;28;20029;-84
2022/08/25 04:19:26;;;;;;;4.03;3.10;;;;;;;21.11;89.09;100601.91;5050574;28;20083;-85
2022/08/25 04:21:52;;;;;;;3.92;3.00;;;;;;;21.11;88.73;100609.88;5031501;28;20024;-85
2022/08/25 04:24:18;;;;;;;3.70;2.78;;;;;;;21.07;89.08;100601.53;5032330;28;20056;-83
2022/08/25 04:26:48;;;;;;;3.28;3.05;;;;;;;21.05;89.53;100602.75;5032813;28;20033;-85
2022/08/25 04:29:31;;;;;;;4.65;2.92;;;;;;;21.04;89.53;100594.00;5032514;28;20035;-83
2022/08/25 04:31:57;;;;;;;5.50;3.00;;;;;;;21.16;87.86;100594.16;5049518;28;20036;-84
2022/08/25 04:34:24;;;;;;;3.17;2.85;;;;;;;21.44;85.81;100593.81;5050725;28;20087;-83
2022/08/25 04:36:50;;;;;;;4.50;3.00;;;;;;;21.69;84.97;100593.91;5049174;28;20033;-85
2022/08/25 04:39:19;;;;;;;3.10;2.88;;;;;;;21.80;83.54;100598.50;5032755;28;20028;-84
2022/08/25 04:41:45;;;;;;;3.65;2.78;;;;;;;22.03;82.27;100598.78;5050205;28;20045;-85
2022/08/25 04:44:10;;;;;;;3.60;2.95;;;;;;;22.05;82.20;100595.91;5050073;28;20021;-85
2022/08/25 04:46:36;;;;;;;3.25;2.70;;;;;;;21.96;82.47;100589.19;5046074;28;20043;-85
2022/08/25 04:49:02;;;;;;;4.57;2.28;;;;;;;21.95;82.36;100591.03;5048716;28;20399;-85
2022/08/25 04:51:31;;;;;;;5.13;2.72;;;;;;;22.02;81.97;100591.03;5048821;28;20116;-86
2022/08/25 04:54:04;;;;;;;3.20;2.78;;;;;;;22.21;80.81;100599.84;5049974;28;20094;-84
2022/08/25 04:56:34;;;;;;;5.05;2.67;;;;;;;22.25;80.79;100596.53;5047372;28;20112;-85
2022/08/25 04:59:05;;;;;;;4.88;2.65;;;;;;;22.19;81.53;100597.44;5050007;28;20029;-84
2022/08/25 05:01:31;;;;;;;4.60;2.83;;;;;;;22.06;82.50;100608.94;5047077;28;20032;-84
2022/08/25 05:03:59;;;;;;;8.13;3.05;;;;;;;21.94;84.45;100601.88;5030296;28;20514;-84
2022/08/25 05:06:45;;;;;;;4.95;2.80;;;;;;;21.75;85.88;100604.44;5030411;28;20152;-85
2022/08/25 05:09:11;;;;;;;;;;;;;;;21.56;87.13;100607.22;5034777;28;20037;-85
2022/08/25 05:11:36;;;;;;;;;;;;;;;21.40;88.65;100606.69;5034767;28;20383;-83
2022/08/25 05:14:02;;;;;;;4.60;2.95;;;;;;;21.33;87.86;100608.56;5032097;28;19917;-85
2022/08/25 05:16:29;;;;;;;3.47;2.97;;;;;;;21.29;89.00;100615.31;5049096;28;20047;-82
2022/08/25 05:18:56;;;;;;;5.22;3.47;;;;;;;21.24;89.72;100615.16;5050056;28;20557;-84
2022/08/25 05:21:26;;;;;;;7.25;3.83;;;;;;;21.15;90.08;100611.88;5047573;28;20514;-86
2022/08/25 05:27:13;;;;;;;5.10;2.88;;;;;;;21.08;89.74;100611.09;5049886;28;20515;-86
2022/08/25 05:29:39;;;;;;;5.13;3.05;;;;;;;21.14;89.05;100610.25;5050525;28;20033;-85
2022/08/25 05:32:04;;;;;;;4.10;3.20;;;;;;;21.22;88.82;100603.94;5028659;28;20031;-82
2022/08/25 05:34:30;;;;;;;5.07;2.90;;;;;;;21.23;89.34;100602.09;5049696;28;20029;-85
2022/08/25 05:36:58;;;;;;;12.13;3.00;;;;;;;21.18;88.97;100605.34;5048564;28;20133;-87
2022/08/25 05:39:24;;;;;;;8.85;2.70;;;;;;;21.23;88.21;100610.88;5049386;28;20413;-84
2022/08/25 05:41:49;;;;;;;11.55;2.88;;;;;;;21.27;87.62;100604.09;5046896;28;20210;-83
2022/08/25 05:44:16;;;;;;;10.50;2.97;;;;;;;21.30;87.65;100603.69;5049844;28;20090;-84
2022/08/25 05:46:41;;;;;;;7.22;3.10;;;;;;;21.31;87.64;100613.25;5031548;28;20025;-84
2022/08/25 05:49:07;;;;;;;11.85;2.95;;;;;;;21.27;87.86;100612.03;5031107;28;20102;-85
2022/08/25 05:51:32;;;;;;;6.65;2.80;;;;;;;21.29;87.68;100615.31;5048466;28;20037;-86
2022/08/25 05:54:07;;;;;;;5.00;2.92;;;;;;;21.35;87.38;100603.84;5034695;28;20043;-85
2022/08/25 05:56:33;;;;;;;7.43;2.65;;;;;;;21.42;86.23;100602.00;5033253;28;20036;-85
2022/08/25 05:59:51;;;;;;;5.03;3.00;;;;;;;21.47;86.05;100604.81;5032512;28;20041;-84
2022/08/25 06:05:01;;;;;;;6.85;2.70;;;;;;;21.44;86.96;100605.25;5049304;28;20364;-86
2022/08/25 06:07:26;;;;;;;6.97;3.70;;;;;;;21.46;87.18;100594.44;5048775;28;20028;-85
2022/08/25 06:09:52;;;;;;;4.35;2.10;;;;;;;21.51;86.99;100602.56;5049423;28;20052;-85
2022/08/25 06:12:34;;;;;;;6.80;3.05;;;;;;;21.53;86.96;100596.03;5046029;28;20369;-87
2022/08/25 06:15:00;;;;;;;4.28;2.45;;;;;;;21.51;87.25;100611.31;5048793;28;20036;-85
2022/08/25 06:17:26;;;;;;;6.25;2.55;;;;;;;21.53;86.65;100608.47;5048772;28;20032;-86
2022/08/25 06:19:53;;;;;;;3.15;2.63;;;;;;;21.51;86.44;100610.50;5049177;28;20033;-85
2022/08/25 06:22:18;;;;;;;3.90;2.60;;;;;;;21.48;86.45;100611.75;5047319;28;20459;-86
2022/08/25 06:24:43;;;;;;;8.40;3.33;;;;;;;21.46;85.88;100611.16;5048837;28;20032;-89
2022/08/25 06:27:09;;;;;;;4.63;2.85;;;;;;;21.46;86.02;100610.34;5030992;28;20090;-87
2022/08/25 06:29:34;;;;;;;5.20;2.47;;;;;;;21.46;86.10;100611.16;5037771;28;20033;-90
2022/08/25 06:32:00;;;;;;;3.03;2.53;;;;;;;21.47;85.66;100606.66;5036785;28;20108;-86
2022/08/25 06:34:25;;;;;;;4.57;2.45;;;;;;;21.46;85.82;100594.44;5039349;28;20033;-85
2022/08/25 06:36:53;;;;;;;7.07;2.83;;;;;;;21.46;85.93;100597.91;5038525;28;20063;-84
2022/08/25 06:39:19;;;;;;;2.33;2.13;;;;;;;21.47;86.23;100594.22;5039784;28;20055;-84
2022/08/25 06:41:50;;;;;;;7.07;2.58;;;;;;;21.49;85.95;100594.81;5038780;28;20454;-85
2022/08/25 06:44:15;;;;;;;7.20;2.58;;;;;;;21.50;85.61;100591.16;5047964;28;20093;-84
2022/08/25 06:46:43;;;;;;;4.60;2.65;;;;;;;21.52;85.53;100597.03;5049777;28;20517;-83
2022/08/25 06:49:08;;;;;;;9.77;2.95;;;;;;;21.57;85.82;100595.59;5050673;28;20397;-85
2022/08/25 06:51:34;;;;;;;6.70;3.67;;;;;;;21.53;85.68;100589.91;5054584;28;20033;-85
2022/08/25 06:54:00;;;;;;;7.35;2.92;;;;;;;21.55;85.96;100587.03;5070202;28;20044;-83
2022/08/25 06:56:26;;;;;;;8.90;3.30;;;;;;;21.54;85.84;100586.22;5071977;28;20017;-84
2022/08/25 06:58:51;;;;;;;8.85;2.25;;;;;;;21.57;85.84;100587.66;5053630;28;20025;-84
2022/08/25 07:01:22;;;;;;;4.38;2.92;;;;;;;21.61;85.36;100584.34;5036877;28;20028;-82
2022/08/25 07:03:49;;;;;;;6.10;2.55;;;;;;;21.70;85.42;100582.25;5030803;28;20113;-84
2022/08/25 07:06:19;;;;;;;6.93;2.33;;;;;;;21.75;85.06;100579.75;5049282;28;20488;-86
2022/08/25 07:08:46;;;;;;;5.10;2.45;;;;;;;21.80;85.31;100580.75;5048051;28;20033;-86
2022/08/25 07:11:13;;;;;;;7.00;2.60;;;;;;;21.89;84.76;100585.78;5047865;28;20033;-83
2022/08/25 07:13:39;;;;;;;8.07;3.17;;;;;;;21.99;84.22;100589.59;5047966;28;20067;-84
2022/08/25 07:16:05;;;;;;;5.32;3.05;;;;;;;22.10;84.18;100588.09;5049043;28;20025;-83
2022/08/25 07:18:32;;;;;;;4.47;2.40;;;;;;;22.20;83.71;100590.28;5046071;28;20033;-86
2022/08/25 07:20:58;;;;;;;9.82;3.30;;;;;;;22.27;83.48;100588.34;5049643;28;20032;-85
2022/08/25 07:23:24;;;;;;;7.28;3.00;;;;;;;22.38;83.05;100587.63;5051922;28;20124;-86
2022/08/25 07:25:50;;;;;;;5.60;2.63;;;;;;;22.44;82.69;100589.41;5051934;28;20029;-87
2022/08/25 07:28:17;;;;;;;5.03;3.42;;;;;;;22.49;82.66;100585.09;5048922;28;20040;-84
2022/08/25 07:30:42;;;;;;;7.45;2.97;;;;;;;22.49;82.95;100587.72;5033465;28;20139;-83
2022/08/25 07:33:08;;;;;;;5.88;2.10;;;;;;;22.48;82.62;100582.66;5052259;28;20173;-86
2022/08/25 07:35:35;;;;;;;3.20;2.90;;;;;;;22.49;82.43;100581.63;5050483;28;20021;-86
2022/08/25 07:38:01;;;;;;;2.88;2.30;;;;;;;22.56;82.42;100587.66;5032456;28;20040;-84
2022/08/25 07:40:32;;;;;;;5.43;2.88;;;;;;;22.60;82.60;100577.44;5052299;28;20025;-84
2022/08/25 07:43:00;;;;;;;7.05;2.90;;;;;;;22.65;82.31;100575.72;5034867;28;20134;-87
2022/08/25 07:45:29;;;;;;;2.75;2.45;;;;;;;22.84;82.58;100573.91;5033352;28;20025;-87
2022/08/25 07:48:04;;;;;;;3.92;2.38;;;;;;;23.15;81.32;100570.25;5033203;28;20021;-85
2022/08/25 07:50:31;;;;;;;5.32;2.67;;;;;;;23.52;80.04;100570.97;5050105;28;20048;-86
2022/08/25 07:53:02;;;;;;;4.68;2.30;;;;;;;23.73;79.13;100567.00;5033126;28;20029;-85
2022/08/25 07:55:30;;;;;;;4.80;2.38;;;;;;;23.72;78.13;100565.38;5031231;28;20056;-86
2022/08/25 07:58:00;;;;;;;4.68;2.83;;;;;;;23.99;77.51;100561.25;5031141;28;20327;-83
2022/08/25 08:00:28;;;;;;;4.68;3.03;;;;;;;24.26;76.84;100566.16;5013301;28;20029;-85
2022/08/25 08:02:55;;;;;;;4.38;2.80;;;;;;;24.50;75.63;100556.31;5031347;28;20026;-84
2022/08/25 08:05:20;;;;;;;4.45;3.10;;;;;;;24.70;74.42;100557.53;5047866;28;20029;-85
2022/08/25 08:07:46;;;;;;;4.03;3.15;;;;;;;24.95;73.81;100559.91;5047120;28;20090;-84
2022/08/25 08:10:13;;;;;;;5.75;2.30;;;;;;;25.17;73.52;100552.06;5050808;28;20039;-88
2022/08/25 08:12:39;;;;;;;5.93;2.60;;;;;;;25.33;72.38;100548.63;5032467;28;20028;-86
2022/08/25 08:15:05;;;;;;;5.10;3.28;;;;;;;25.41;72.80;100553.59;5052198;28;20029;-85
2022/08/25 08:20:53;;;;;;;6.38;2.90;;;;;;;25.78;71.10;100542.50;5041270;28;20094;-83
2022/08/25 08:23:19;;;;;;;3.30;2.70;;;;;;;25.98;70.22;100534.81;5030994;28;20438;-87
2022/08/25 08:25:45;;;;;;;8.30;3.05;;;;;;;26.02;69.62;100543.91;5048535;28;20099;-86
2022/08/25 08:28:10;;;;;;;5.07;2.95;;;;;;;26.06;69.54;100542.38;5050307;28;20068;-88
2022/08/25 08:30:36;;;;;;;4.57;2.53;;;;;;;26.30;70.51;100543.00;5050535;28;20496;-84
2022/08/25 08:33:02;;;;;;;4.15;2.75;;;;;;;26.44;69.31;100540.81;5026980;28;20136;-83
2022/08/25 08:35:27;;;;;;;3.05;2.45;;;;;;;26.58;67.34;100536.69;5042541;28;20113;-86
2022/08/25 08:37:53;;;;;;;3.97;2.60;;;;;;;26.69;66.08;100537.63;5050519;28;20115;-89
2022/08/25 08:40:19;;;;;;;4.45;2.60;;;;;;;26.82;66.22;100531.13;5033141;28;20492;-85
2022/08/25 08:43:12;;;;;;;4.30;2.83;;;;;;;26.83;64.61;100538.09;5032264;28;20045;-86
2022/08/25 08:45:53;;;;;;;5.43;2.28;;;;;;;26.85;64.75;100536.78;5052020;28;20028;-85
2022/08/25 08:48:44;;;;;;;4.53;2.70;;;;;;;26.89;65.21;100537.88;5033361;28;20043;-88
2022/08/25 08:51:20;;;;;;;2.80;2.60;;;;;;;26.94;64.81;100529.91;5047803;28;20381;-84
2022/08/25 08:53:58;;;;;;;2.90;2.33;;;;;;;26.88;63.43;100525.59;5039846;28;20029;-88
2022/08/25 08:57:15;;;;;;;4.93;2.67;;;;;;;26.81;64.93;100524.16;5031643;28;20074;-85
2022/08/25 08:59:47;;;;;;;3.47;2.78;;;;;;;26.60;66.52;100523.91;5027446;28;20053;-85
2022/08/25 09:02:45;;;;;;;4.53;3.33;;;;;;;26.71;67.45;100519.50;5013187;28;20030;-86
2022/08/25 09:05:13;;;;;;;5.07;2.70;;;;;;;26.71;66.79;100517.63;5015388;28;20037;-87
2022/08/25 09:08:11;;;;;;;5.45;2.97;;;;;;;26.84;65.07;100515.63;5029435;28;20040;-84
2022/08/25 09:11:01;;;;;;;5.13;3.10;;;;;;;26.72;64.12;100518.44;5014812;28;20045;-85
2022/08/25 09:13:35;;;;;;;4.38;2.75;;;;;;;26.72;65.41;100516.56;5049876;28;20037;-82
2022/08/25 09:19:20;;;;;;;2.85;2.63;;;;;;;26.75;65.66;100509.94;5052479;28;20098;-85
2022/08/25 09:21:55;;;;;;;4.50;3.05;;;;;;;26.86;66.04;100510.84;5049091;28;20029;-84
2022/08/25 09:24:23;;;;;;;3.83;2.83;;;;;;;26.93;66.06;100508.78;5039825;28;20037;-85
2022/08/25 09:27:45;;;;;;;4.55;2.38;;;;;;;26.88;63.92;100508.75;5065251;28;20103;-84
2022/08/25 09:30:15;;;;;;;4.43;2.72;;;;;;;26.87;65.67;100502.59;5044161;28;20039;-84
2022/08/25 09:33:03;;;;;;;4.47;2.67;;;;;;;26.82;64.75;100499.84;5050580;28;20055;-85
2022/08/25 09:35:35;;;;;;;5.55;2.38;;;;;;;26.93;64.64;100500.78;5067845;28;20025;-83
2022/08/25 09:38:09;;;;;;;4.50;2.95;;;;;;;27.02;65.67;100488.56;5065868;28;20417;-88
2022/08/25 09:40:39;;;;;;;6.90;2.72;;;;;;;27.19;65.06;100496.50;5035339;28;20089;-85
2022/08/25 09:43:19;;;;;;;4.47;2.63;;;;;;;27.26;64.56;100483.75;5051636;28;20064;-84
2022/08/25 09:45:48;;;;;;;7.00;2.47;;;;;;;27.23;63.94;100479.69;5072246;28;20134;-86
2022/08/25 09:48:41;;;;;;;8.95;3.00;;;;;;;27.37;61.87;100480.91;5037650;28;20123;-83
2022/08/25 09:51:20;;;;;;;2.80;1.98;;;;;;;27.29;63.92;100472.53;5040671;28;20045;-83
2022/08/25 09:53:54;;;;;;;6.97;2.47;;;;;;;27.30;62.55;100476.81;5029815;28;20054;-84
2022/08/25 09:56:23;;;;;;;4.35;2.42;;;;;;;27.51;60.87;100470.56;5044045;28;20033;-85
2022/08/25 09:58:50;;;;;;;6.32;2.25;;;;;;;27.62;59.61;100474.97;5052716;28;20083;-85
2022/08/25 10:02:08;;;;;;;2.88;2.30;;;;;;;27.52;58.15;100476.72;5065846;28;20410;-85
2022/08/25 10:04:37;;;;;;;5.22;2.83;;;;;;;27.37;60.08;100458.69;5043511;28;20031;-82
2022/08/25 10:07:19;;;;;;;4.90;2.58;;;;;;;27.47;61.08;100464.09;5054774;28;20040;-87
2022/08/25 10:09:52;;;;;;;4.70;2.35;;;;;;;27.60;62.14;100454.88;5045355;28;20025;-85
2022/08/25 10:12:27;;;;;;;6.25;2.45;;;;;;;27.69;60.73;100461.34;5039461;28;20079;-88
2022/08/25 10:14:53;;;;;;;;;;;;;;;27.80;59.98;100457.69;5049046;28;20033;-85
2022/08/25 10:17:23;;;;;;;8.50;2.20;;;;;;;27.78;60.35;100446.44;5069601;28;19919;-85
2022/08/25 10:19:55;;;;;;;4.55;2.33;;;;;;;27.92;58.33;100447.56;5053997;28;20040;-84
2022/08/25 10:22:35;;;;;;;5.18;2.30;;;;;;;28.01;59.17;100442.53;5042977;28;20974;-86
2022/08/25 10:25:03;;;;;;;5.60;2.20;;;;;;;27.96;59.04;100450.53;5073556;28;20028;-83
2022/08/25 10:28:06;;;;;;;10.57;2.97;;;;;;;28.01;58.42;100439.84;5071178;28;20036;-84
2022/08/25 10:30:52;;;;;;;5.40;1.90;;;;;;;28.09;57.08;100442.03;5083608;28;20080;-83
2022/08/25 10:33:44;;;;;;;8.95;2.28;;;;;;;28.18;55.18;100429.75;5076161;28;20060;-85
2022/08/25 10:36:42;;;;;;;12.73;2.97;;;;;;;28.11;55.08;100421.16;5055647;28;20036;-85
2022/08/25 10:39:34;;;;;;;4.90;2.15;;;;;;;28.11;56.41;100412.31;5029267;28;20029;-85
2022/08/25 10:42:35;;;;;;;6.75;2.13;;;;;;;27.95;57.78;100414.91;5030782;28;20060;-86
2022/08/25 10:45:42;;;;;;;7.72;2.67;;;;;;;28.02;58.24;100401.28;5047025;28;20041;-86
2022/08/25 10:48:44;;;;;;;5.50;2.05;;;;;;;28.10;58.14;100398.13;5055182;28;20029;-86
2022/08/25 10:51:40;;;;;;;11.52;2.70;;;;;;;28.18;54.71;100399.50;5053384;28;20060;-86
2022/08/25 10:54:52;;;;;;;7.40;2.75;;;;;;;28.22;53.93;100395.25;5046664;28;20037;-84
2022/08/25 10:57:20;;;;;;;6.10;1.77;;;;;;;28.44;54.85;100389.69;5002881;28;20057;-85
2022/08/25 10:59:56;;;;;;;6.72;1.98;;;;;;;28.44;53.63;100385.13;5058999;28;20124;-86
2022/08/25 11:02:43;;;;;;;4.82;2.30;;;;;;;28.29;53.63;100388.59;5058923;28;20491;-84
2022/08/25 11:05:21;;;;;;;4.97;2.33;;;;;;;28.19;54.77;100387.72;5066217;28;20453;-87
2022/08/25 11:07:50;;;;;;;6.15;1.70;;;;;;;28.51;55.52;100383.00;5068224;28;20040;-85
2022/08/25 11:10:47;;;;;;;5.97;2.45;;;;;;;28.51;55.02;100388.34;5034650;28;20028;-84
2022/08/25 11:13:21;;;;;;;2.83;1.98;;;;;;;28.38;55.25;100373.59;5032113;28;20033;-84
2022/08/25 11:16:02;;;;;;;5.57;2.70;;;;;;;28.39;55.70;100374.38;5051962;28;20103;-86
2022/08/25 11:18:30;;;;;;;6.35;1.90;;;;;;;28.49;54.31;100374.41;5067719;28;20036;-87
2022/08/25 11:21:17;;;;;;;4.43;1.58;;;;;;;28.80;51.76;100366.44;5065682;28;20107;-84
2022/08/25 11:23:54;;;;;;;2.65;1.70;;;;;;;28.61;50.10;100350.84;5067690;28;20518;-84
2022/08/25 11:26:32;;;;;;;7.57;1.95;;;;;;;28.58;50.40;100351.41;5058252;28;20032;-85
2022/08/25 11:29:17;;;;;;;6.15;1.92;;;;;;;28.37;53.01;100350.53;5044191;28;20515;-86
2022/08/25 11:31:53;;;;;;;3.03;1.40;;;;;;;28.18;55.05;100352.09;5062957;28;20081;-86
2022/08/25 11:34:20;;;;;;;2.88;1.65;;;;;;;27.99;55.38;100356.28;5046812;28;20033;-84
2022/08/25 11:36:53;;;;;;;9.02;2.25;;;;;;;27.94;56.43;100348.25;5043432;28;20512;-85
2022/08/25 11:39:40;;;;;;;3.75;1.65;;;;;;;28.17;55.80;100350.47;5043729;28;20113;-86
2022/08/25 11:42:20;;;;;;;4.47;1.75;;;;;;;28.25;54.63;100341.16;5042754;28;20127;-86
2022/08/25 11:45:23;;;;;;;4.40;1.75;;;;;;;28.40;51.12;100346.53;5039534;28;20033;-90
2022/08/25 11:48:10;;;;;;;3.90;1.77;;;;;;;28.47;52.33;100339.03;5026704;28;20451;-87
2022/08/25 11:51:00;;;;;;;2.90;1.38;;;;;;;28.57;51.42;100335.56;5038852;28;20480;-90
2022/08/25 11:53:32;;;;;;;5.30;1.83;;;;;;;28.49;53.45;100339.59;5061261;28;20039;-87
2022/08/25 11:56:04;;;;;;;3.88;1.52;;;;;;;28.29;52.47;100336.88;5043267;28;20041;-88
2022/08/25 11:58:29;;;;;;;7.95;1.73;;;;;;;28.30;53.57;100333.94;5049234;28;20116;-85
2022/08/25 12:04:40;;;;;;;5.55;2.58;;;;;;;28.22;54.87;100321.06;5052685;28;20154;-85
2022/08/25 12:07:05;;;;;;;3.25;1.60;;;;;;;28.20;53.14;100331.19;5063309;28;20036;-86